sensor_id;sensor_type;location;lat;lon;timestamp;P1;durP1;ratioP1;P2;durP2;ratioP2
2129;SDS011;1071;52.544;13.374;2023-11-18T00:01:02;11.32;;;8.57;;
2129;SDS011;1071;52.544;13.374;2023-11-18T00:03:33;8.02;;;6.10;;
2129;SDS011;1071;52.544;13.374;2023-11-18T00:06:00;6.38;;;5.13;;
2129;SDS011;1071;52.544;13.374;2023-11-18T00:08:28;6.10;;;5.53;;
2129;SDS011;1071;52.544;13.374;2023-11-18T00:10:56;6.85;;;6.15;;
2129;SDS011;1071;52.544;13.374;2023-11-18T00:13:23;6.07;;;5.47;;
2129;SDS011;1071;52.544;13.374;2023-11-18T00:15:52;6.22;;;5.63;;
2129;SDS011;1071;52.544;13.374;2023-11-18T00:18:19;6.13;;;5.53;;
2129;SDS011;1071;52.544;13.374;2023-11-18T00:20:47;6.75;;;5.97;;
2129;SDS011;1071;52.544;13.374;2023-11-18T00:23:15;7.00;;;5.97;;
2129;SDS011;1071;52.544;13.374;2023-11-18T00:25:42;5.72;;;5.22;;
2129;SDS011;1071;52.544;13.374;2023-11-18T00:28:10;5.13;;;4.63;;
2129;SDS011;1071;52.544;13.374;2023-11-18T00:30:39;5.85;;;5.35;;
2129;SDS011;1071;52.544;13.374;2023-11-18T00:33:08;6.55;;;5.90;;
2129;SDS011;1071;52.544;13.374;2023-11-18T00:35:37;6.60;;;5.38;;
2129;SDS011;1071;52.544;13.374;2023-11-18T00:38:04;6.82;;;5.90;;
2129;SDS011;1071;52.544;13.374;2023-11-18T00:40:31;8.13;;;5.93;;
2129;SDS011;1071;52.544;13.374;2023-11-18T00:43:00;7.10;;;6.40;;
2129;SDS011;1071;52.544;13.374;2023-11-18T00:45:37;6.10;;;5.60;;
2129;SDS011;1071;52.544;13.374;2023-11-18T00:48:04;6.65;;;5.47;;
2129;SDS011;1071;52.544;13.374;2023-11-18T00:50:33;5.53;;;5.00;;
2129;SDS011;1071;52.544;13.374;2023-11-18T00:53:01;5.57;;;5.18;;
2129;SDS011;1071;52.544;13.374;2023-11-18T00:55:28;7.32;;;6.25;;
2129;SDS011;1071;52.544;13.374;2023-11-18T00:57:55;6.85;;;6.25;;
2129;SDS011;1071;52.544;13.374;2023-11-18T01:00:22;6.30;;;5.60;;
2129;SDS011;1071;52.544;13.374;2023-11-18T01:02:51;6.32;;;5.50;;
2129;SDS011;1071;52.544;13.374;2023-11-18T01:05:22;6.03;;;4.85;;
2129;SDS011;1071;52.544;13.374;2023-11-18T01:07:51;5.80;;;5.30;;
2129;SDS011;1071;52.544;13.374;2023-11-18T01:10:18;6.13;;;5.55;;
2129;SDS011;1071;52.544;13.374;2023-11-18T01:12:45;7.45;;;6.53;;
2129;SDS011;1071;52.544;13.374;2023-11-18T01:15:12;7.65;;;6.78;;
2129;SDS011;1071;52.544;13.374;2023-11-18T01:17:39;9.23;;;6.97;;
2129;SDS011;1071;52.544;13.374;2023-11-18T01:20:10;6.20;;;5.60;;
2129;SDS011;1071;52.544;13.374;2023-11-18T01:22:48;5.60;;;5.10;;
2129;SDS011;1071;52.544;13.374;2023-11-18T01:25:16;7.40;;;5.60;;
2129;SDS011;1071;52.544;13.374;2023-11-18T01:27:44;5.90;;;5.50;;
2129;SDS011;1071;52.544;13.374;2023-11-18T01:30:13;5.40;;;4.90;;
2129;SDS011;1071;52.544;13.374;2023-11-18T01:32:40;6.25;;;5.65;;
2129;SDS011;1071;52.544;13.374;2023-11-18T01:35:07;7.65;;;6.43;;
2129;SDS011;1071;52.544;13.374;2023-11-18T01:37:35;5.53;;;5.03;;
2129;SDS011;1071;52.544;13.374;2023-11-18T01:40:03;5.75;;;4.97;;
2129;SDS011;1071;52.544;13.374;2023-11-18T01:42:33;7.50;;;6.18;;
2129;SDS011;1071;52.544;13.374;2023-11-18T01:45:00;10.82;;;9.45;;
2129;SDS011;1071;52.544;13.374;2023-11-18T01:47:29;6.95;;;5.97;;
2129;SDS011;1071;52.544;13.374;2023-11-18T01:49:58;6.93;;;5.05;;
2129;SDS011;1071;52.544;13.374;2023-11-18T01:52:26;6.22;;;5.65;;
2129;SDS011;1071;52.544;13.374;2023-11-18T01:54:55;8.68;;;7.53;;
2129;SDS011;1071;52.544;13.374;2023-11-18T01:57:22;8.98;;;7.00;;
2129;SDS011;1071;52.544;13.374;2023-11-18T01:59:53;6.30;;;5.70;;
2129;SDS011;1071;52.544;13.374;2023-11-18T02:02:20;8.13;;;7.18;;
2129;SDS011;1071;52.544;13.374;2023-11-18T02:04:47;4.72;;;4.30;;
2129;SDS011;1071;52.544;13.374;2023-11-18T02:07:14;7.55;;;6.22;;
2129;SDS011;1071;52.544;13.374;2023-11-18T02:09:41;7.63;;;7.00;;
2129;SDS011;1071;52.544;13.374;2023-11-18T02:12:13;5.35;;;4.88;;
2129;SDS011;1071;52.544;13.374;2023-11-18T02:14:46;10.50;;;8.35;;
2129;SDS011;1071;52.544;13.374;2023-11-18T02:17:18;9.25;;;7.50;;
2129;SDS011;1071;52.544;13.374;2023-11-18T02:19:49;7.95;;;7.15;;
2129;SDS011;1071;52.544;13.374;2023-11-18T02:22:18;6.88;;;6.18;;
2129;SDS011;1071;52.544;13.374;2023-11-18T02:24:46;6.40;;;5.90;;
2129;SDS011;1071;52.544;13.374;2023-11-18T02:27:15;6.20;;;5.65;;
2129;SDS011;1071;52.544;13.374;2023-11-18T02:29:47;6.43;;;5.82;;
2129;SDS011;1071;52.544;13.374;2023-11-18T02:32:18;8.00;;;5.63;;
2129;SDS011;1071;52.544;13.374;2023-11-18T02:35:05;13.98;;;11.55;;
2129;SDS011;1071;52.544;13.374;2023-11-18T02:37:41;7.25;;;6.22;;
2129;SDS011;1071;52.544;13.374;2023-11-18T02:40:12;6.03;;;5.50;;
2129;SDS011;1071;52.544;13.374;2023-11-18T02:42:48;6.38;;;5.68;;
2129;SDS011;1071;52.544;13.374;2023-11-18T02:45:18;6.22;;;5.63;;
2129;SDS011;1071;52.544;13.374;2023-11-18T02:47:46;7.03;;;6.30;;
2129;SDS011;1071;52.544;13.374;2023-11-18T02:50:14;7.63;;;6.70;;
2129;SDS011;1071;52.544;13.374;2023-11-18T02:52:44;6.18;;;5.57;;
2129;SDS011;1071;52.544;13.374;2023-11-18T02:55:11;6.05;;;5.47;;
2129;SDS011;1071;52.544;13.374;2023-11-18T02:57:38;9.25;;;7.65;;
2129;SDS011;1071;52.544;13.374;2023-11-18T03:00:07;9.32;;;8.32;;
2129;SDS011;1071;52.544;13.374;2023-11-18T03:02:46;7.88;;;6.68;;
2129;SDS011;1071;52.544;13.374;2023-11-18T03:05:15;6.13;;;5.50;;
2129;SDS011;1071;52.544;13.374;2023-11-18T03:07:42;6.00;;;5.50;;
2129;SDS011;1071;52.544;13.374;2023-11-18T03:10:12;6.20;;;5.47;;
2129;SDS011;1071;52.544;13.374;2023-11-18T03:12:45;8.00;;;5.50;;
2129;SDS011;1071;52.544;13.374;2023-11-18T03:15:14;6.78;;;6.00;;
2129;SDS011;1071;52.544;13.374;2023-11-18T03:17:43;7.15;;;5.93;;
2129;SDS011;1071;52.544;13.374;2023-11-18T03:20:11;6.40;;;5.80;;
2129;SDS011;1071;52.544;13.374;2023-11-18T03:22:41;9.13;;;6.00;;
2129;SDS011;1071;52.544;13.374;2023-11-18T03:25:09;6.68;;;6.00;;
2129;SDS011;1071;52.544;13.374;2023-11-18T03:27:36;6.03;;;5.43;;
2129;SDS011;1071;52.544;13.374;2023-11-18T03:30:03;6.45;;;5.35;;
2129;SDS011;1071;52.544;13.374;2023-11-18T03:32:35;6.75;;;5.65;;
2129;SDS011;1071;52.544;13.374;2023-11-18T03:35:03;5.70;;;5.20;;
2129;SDS011;1071;52.544;13.374;2023-11-18T03:37:33;7.18;;;5.43;;
2129;SDS011;1071;52.544;13.374;2023-11-18T03:40:01;5.50;;;5.00;;
2129;SDS011;1071;52.544;13.374;2023-11-18T03:42:29;6.20;;;5.38;;
2129;SDS011;1071;52.544;13.374;2023-11-18T03:45:00;5.70;;;5.20;;
2129;SDS011;1071;52.544;13.374;2023-11-18T03:47:27;5.60;;;5.10;;
2129;SDS011;1071;52.544;13.374;2023-11-18T03:49:56;6.72;;;6.13;;
2129;SDS011;1071;52.544;13.374;2023-11-18T03:52:26;5.03;;;4.40;;
2129;SDS011;1071;52.544;13.374;2023-11-18T03:54:54;5.38;;;4.88;;
2129;SDS011;1071;52.544;13.374;2023-11-18T03:57:21;4.80;;;4.40;;
2129;SDS011;1071;52.544;13.374;2023-11-18T03:59:48;5.35;;;4.85;;
2129;SDS011;1071;52.544;13.374;2023-11-18T04:02:15;9.93;;;5.60;;
2129;SDS011;1071;52.544;13.374;2023-11-18T04:04:42;5.38;;;4.50;;
2129;SDS011;1071;52.544;13.374;2023-11-18T04:07:10;6.53;;;5.93;;
2129;SDS011;1071;52.544;13.374;2023-11-18T04:09:38;5.72;;;5.22;;
2129;SDS011;1071;52.544;13.374;2023-11-18T04:12:06;5.47;;;4.97;;
2129;SDS011;1071;52.544;13.374;2023-11-18T04:14:48;16.83;;;14.75;;
2129;SDS011;1071;52.544;13.374;2023-11-18T04:17:15;5.88;;;5.32;;
2129;SDS011;1071;52.544;13.374;2023-11-18T04:19:42;5.07;;;4.68;;
2129;SDS011;1071;52.544;13.374;2023-11-18T04:22:11;5.80;;;5.30;;
2129;SDS011;1071;52.544;13.374;2023-11-18T04:24:38;6.72;;;5.15;;
2129;SDS011;1071;52.544;13.374;2023-11-18T04:27:07;5.05;;;4.65;;
2129;SDS011;1071;52.544;13.374;2023-11-18T04:29:36;5.88;;;5.25;;
2129;SDS011;1071;52.544;13.374;2023-11-18T04:32:05;6.13;;;5.53;;
2129;SDS011;1071;52.544;13.374;2023-11-18T04:34:35;6.53;;;5.70;;
2129;SDS011;1071;52.544;13.374;2023-11-18T04:37:02;6.43;;;5.82;;
2129;SDS011;1071;52.544;13.374;2023-11-18T04:39:32;5.93;;;5.32;;
2129;SDS011;1071;52.544;13.374;2023-11-18T04:41:59;5.13;;;4.57;;
2129;SDS011;1071;52.544;13.374;2023-11-18T04:44:27;7.88;;;7.07;;
2129;SDS011;1071;52.544;13.374;2023-11-18T04:46:56;6.43;;;5.82;;
2129;SDS011;1071;52.544;13.374;2023-11-18T04:49:23;6.15;;;5.65;;
2129;SDS011;1071;52.544;13.374;2023-11-18T04:51:50;7.00;;;6.35;;
2129;SDS011;1071;52.544;13.374;2023-11-18T04:54:17;7.88;;;7.07;;
2129;SDS011;1071;52.544;13.374;2023-11-18T04:56:48;12.57;;;6.65;;
2129;SDS011;1071;52.544;13.374;2023-11-18T04:59:15;6.25;;;5.70;;
2129;SDS011;1071;52.544;13.374;2023-11-18T05:01:43;7.05;;;6.40;;
2129;SDS011;1071;52.544;13.374;2023-11-18T05:04:10;6.78;;;6.15;;
2129;SDS011;1071;52.544;13.374;2023-11-18T05:06:37;6.47;;;5.93;;
2129;SDS011;1071;52.544;13.374;2023-11-18T05:09:04;6.03;;;5.47;;
2129;SDS011;1071;52.544;13.374;2023-11-18T05:11:32;6.90;;;5.93;;
2129;SDS011;1071;52.544;13.374;2023-11-18T05:14:01;6.70;;;5.70;;
2129;SDS011;1071;52.544;13.374;2023-11-18T05:16:29;6.10;;;5.50;;
2129;SDS011;1071;52.544;13.374;2023-11-18T05:18:56;6.20;;;5.70;;
2129;SDS011;1071;52.544;13.374;2023-11-18T05:21:23;6.05;;;5.45;;
2129;SDS011;1071;52.544;13.374;2023-11-18T05:23:50;5.82;;;5.22;;
2129;SDS011;1071;52.544;13.374;2023-11-18T05:26:17;7.70;;;6.95;;
2129;SDS011;1071;52.544;13.374;2023-11-18T05:28:44;6.55;;;5.82;;
2129;SDS011;1071;52.544;13.374;2023-11-18T05:31:12;6.05;;;5.55;;
2129;SDS011;1071;52.544;13.374;2023-11-18T05:33:39;6.90;;;6.30;;
2129;SDS011;1071;52.544;13.374;2023-11-18T05:36:09;7.88;;;6.80;;
2129;SDS011;1071;52.544;13.374;2023-11-18T05:38:37;6.53;;;5.88;;
2129;SDS011;1071;52.544;13.374;2023-11-18T05:41:04;6.50;;;5.78;;
2129;SDS011;1071;52.544;13.374;2023-11-18T05:43:43;6.70;;;6.00;;
2129;SDS011;1071;52.544;13.374;2023-11-18T05:46:20;8.35;;;6.35;;
2129;SDS011;1071;52.544;13.374;2023-11-18T05:48:51;7.82;;;6.13;;
2129;SDS011;1071;52.544;13.374;2023-11-18T05:51:19;6.72;;;6.13;;
2129;SDS011;1071;52.544;13.374;2023-11-18T05:53:47;6.55;;;5.43;;
2129;SDS011;1071;52.544;13.374;2023-11-18T05:56:16;7.22;;;6.57;;
2129;SDS011;1071;52.544;13.374;2023-11-18T05:58:43;6.90;;;5.75;;
2129;SDS011;1071;52.544;13.374;2023-11-18T06:01:10;7.43;;;6.25;;
2129;SDS011;1071;52.544;13.374;2023-11-18T06:03:38;7.90;;;6.95;;
2129;SDS011;1071;52.544;13.374;2023-11-18T06:06:06;7.35;;;6.43;;
2129;SDS011;1071;52.544;13.374;2023-11-18T06:08:34;8.13;;;7.32;;
2129;SDS011;1071;52.544;13.374;2023-11-18T06:11:02;7.80;;;6.90;;
2129;SDS011;1071;52.544;13.374;2023-11-18T06:13:38;7.50;;;6.70;;
2129;SDS011;1071;52.544;13.374;2023-11-18T06:16:08;6.90;;;6.20;;
2129;SDS011;1071;52.544;13.374;2023-11-18T06:18:40;7.03;;;6.32;;
2129;SDS011;1071;52.544;13.374;2023-11-18T06:21:10;9.40;;;7.85;;
2129;SDS011;1071;52.544;13.374;2023-11-18T06:23:38;8.40;;;7.60;;
2129;SDS011;1071;52.544;13.374;2023-11-18T06:26:05;7.85;;;6.47;;
2129;SDS011;1071;52.544;13.374;2023-11-18T06:28:35;8.70;;;7.03;;
2129;SDS011;1071;52.544;13.374;2023-11-18T06:31:02;7.82;;;6.60;;
2129;SDS011;1071;52.544;13.374;2023-11-18T06:33:35;7.53;;;6.78;;
2129;SDS011;1071;52.544;13.374;2023-11-18T06:36:09;7.47;;;6.78;;
2129;SDS011;1071;52.544;13.374;2023-11-18T06:38:43;9.70;;;6.70;;
2129;SDS011;1071;52.544;13.374;2023-11-18T06:41:10;9.13;;;7.63;;
2129;SDS011;1071;52.544;13.374;2023-11-18T06:43:41;7.68;;;6.63;;
2129;SDS011;1071;52.544;13.374;2023-11-18T06:46:17;7.95;;;6.88;;
2129;SDS011;1071;52.544;13.374;2023-11-18T06:48:46;6.65;;;6.03;;
2129;SDS011;1071;52.544;13.374;2023-11-18T06:51:15;9.25;;;6.82;;
2129;SDS011;1071;52.544;13.374;2023-11-18T06:53:48;10.15;;;7.95;;
2129;SDS011;1071;52.544;13.374;2023-11-18T06:56:20;9.52;;;8.02;;
2129;SDS011;1071;52.544;13.374;2023-11-18T06:58:49;8.73;;;7.88;;
2129;SDS011;1071;52.544;13.374;2023-11-18T07:01:17;9.68;;;7.65;;
2129;SDS011;1071;52.544;13.374;2023-11-18T07:03:44;8.25;;;7.45;;
2129;SDS011;1071;52.544;13.374;2023-11-18T07:06:18;10.30;;;7.35;;
2129;SDS011;1071;52.544;13.374;2023-11-18T07:08:47;11.00;;;7.97;;
2129;SDS011;1071;52.544;13.374;2023-11-18T07:11:14;9.60;;;8.60;;
2129;SDS011;1071;52.544;13.374;2023-11-18T07:13:42;10.80;;;8.68;;
2129;SDS011;1071;52.544;13.374;2023-11-18T07:16:09;9.32;;;7.72;;
2129;SDS011;1071;52.544;13.374;2023-11-18T07:18:36;10.15;;;8.30;;
2129;SDS011;1071;52.544;13.374;2023-11-18T07:21:04;10.25;;;8.27;;
2129;SDS011;1071;52.544;13.374;2023-11-18T07:23:33;10.27;;;8.50;;
2129;SDS011;1071;52.544;13.374;2023-11-18T07:26:01;11.80;;;8.52;;
2129;SDS011;1071;52.544;13.374;2023-11-18T07:28:29;8.20;;;7.40;;
2129;SDS011;1071;52.544;13.374;2023-11-18T07:30:56;9.57;;;7.95;;
2129;SDS011;1071;52.544;13.374;2023-11-18T07:33:24;10.80;;;8.65;;
2129;SDS011;1071;52.544;13.374;2023-11-18T07:35:51;12.02;;;8.85;;
2129;SDS011;1071;52.544;13.374;2023-11-18T07:38:19;12.85;;;10.13;;
2129;SDS011;1071;52.544;13.374;2023-11-18T07:40:48;10.85;;;9.27;;
2129;SDS011;1071;52.544;13.374;2023-11-18T07:43:17;12.25;;;10.30;;
2129;SDS011;1071;52.544;13.374;2023-11-18T07:45:46;10.82;;;9.73;;
2129;SDS011;1071;52.544;13.374;2023-11-18T07:48:15;12.63;;;10.32;;
2129;SDS011;1071;52.544;13.374;2023-11-18T07:50:43;10.70;;;9.48;;
2129;SDS011;1071;52.544;13.374;2023-11-18T07:53:11;11.85;;;8.95;;
2129;SDS011;1071;52.544;13.374;2023-11-18T07:55:38;10.05;;;8.82;;
2129;SDS011;1071;52.544;13.374;2023-11-18T07:58:07;12.65;;;8.90;;
2129;SDS011;1071;52.544;13.374;2023-11-18T08:00:35;10.48;;;9.05;;
2129;SDS011;1071;52.544;13.374;2023-11-18T08:03:05;9.35;;;8.40;;
2129;SDS011;1071;52.544;13.374;2023-11-18T08:05:36;11.23;;;7.53;;
2129;SDS011;1071;52.544;13.374;2023-11-18T08:08:04;11.20;;;8.65;;
2129;SDS011;1071;52.544;13.374;2023-11-18T08:10:32;9.90;;;7.70;;
2129;SDS011;1071;52.544;13.374;2023-11-18T08:13:02;8.70;;;7.15;;
2129;SDS011;1071;52.544;13.374;2023-11-18T08:15:31;9.60;;;8.25;;
2129;SDS011;1071;52.544;13.374;2023-11-18T08:17:59;12.48;;;10.00;;
2129;SDS011;1071;52.544;13.374;2023-11-18T08:20:26;11.35;;;9.75;;
2129;SDS011;1071;52.544;13.374;2023-11-18T08:22:53;14.82;;;11.60;;
2129;SDS011;1071;52.544;13.374;2023-11-18T08:25:20;19.35;;;13.48;;
2129;SDS011;1071;52.544;13.374;2023-11-18T08:27:47;13.90;;;11.63;;
2129;SDS011;1071;52.544;13.374;2023-11-18T08:30:15;11.43;;;10.18;;
2129;SDS011;1071;52.544;13.374;2023-11-18T08:32:45;14.25;;;9.98;;
2129;SDS011;1071;52.544;13.374;2023-11-18T08:35:13;13.27;;;11.00;;
2129;SDS011;1071;52.544;13.374;2023-11-18T08:37:41;12.88;;;10.93;;
2129;SDS011;1071;52.544;13.374;2023-11-18T08:40:12;15.77;;;11.30;;
2129;SDS011;1071;52.544;13.374;2023-11-18T08:42:41;11.25;;;8.70;;
2129;SDS011;1071;52.544;13.374;2023-11-18T08:45:13;10.35;;;9.30;;
2129;SDS011;1071;52.544;13.374;2023-11-18T08:47:42;8.50;;;7.53;;
2129;SDS011;1071;52.544;13.374;2023-11-18T08:50:12;10.13;;;8.98;;
2129;SDS011;1071;52.544;13.374;2023-11-18T08:52:41;10.48;;;9.38;;
2129;SDS011;1071;52.544;13.374;2023-11-18T08:55:11;9.30;;;8.23;;
2129;SDS011;1071;52.544;13.374;2023-11-18T08:57:42;10.00;;;7.85;;
2129;SDS011;1071;52.544;13.374;2023-11-18T09:00:17;9.55;;;8.13;;
2129;SDS011;1071;52.544;13.374;2023-11-18T09:02:59;8.15;;;6.75;;
2129;SDS011;1071;52.544;13.374;2023-11-18T09:05:30;7.25;;;6.53;;
2129;SDS011;1071;52.544;13.374;2023-11-18T09:08:00;6.13;;;5.53;;
2129;SDS011;1071;52.544;13.374;2023-11-18T09:10:31;7.80;;;7.00;;
2129;SDS011;1071;52.544;13.374;2023-11-18T09:12:58;7.80;;;6.72;;
2129;SDS011;1071;52.544;13.374;2023-11-18T09:15:24;7.22;;;6.55;;
2129;SDS011;1071;52.544;13.374;2023-11-18T09:17:53;9.75;;;7.10;;
2129;SDS011;1071;52.544;13.374;2023-11-18T09:20:26;9.60;;;7.53;;
2129;SDS011;1071;52.544;13.374;2023-11-18T09:22:54;7.03;;;6.10;;
2129;SDS011;1071;52.544;13.374;2023-11-18T09:25:21;8.55;;;6.65;;
2129;SDS011;1071;52.544;13.374;2023-11-18T09:27:48;8.65;;;7.00;;
2129;SDS011;1071;52.544;13.374;2023-11-18T09:30:17;9.02;;;6.45;;
2129;SDS011;1071;52.544;13.374;2023-11-18T09:32:44;9.65;;;8.25;;
2129;SDS011;1071;52.544;13.374;2023-11-18T09:35:18;8.65;;;7.05;;
2129;SDS011;1071;52.544;13.374;2023-11-18T09:37:47;6.95;;;6.25;;
2129;SDS011;1071;52.544;13.374;2023-11-18T09:40:15;6.95;;;6.07;;
2129;SDS011;1071;52.544;13.374;2023-11-18T09:42:51;11.73;;;7.82;;
2129;SDS011;1071;52.544;13.374;2023-11-18T09:45:23;8.63;;;7.40;;
2129;SDS011;1071;52.544;13.374;2023-11-18T09:47:51;7.45;;;6.70;;
2129;SDS011;1071;52.544;13.374;2023-11-18T09:50:19;8.02;;;7.22;;
2129;SDS011;1071;52.544;13.374;2023-11-18T09:52:56;7.07;;;6.38;;
2129;SDS011;1071;52.544;13.374;2023-11-18T09:55:37;9.20;;;7.18;;
2129;SDS011;1071;52.544;13.374;2023-11-18T09:58:20;11.52;;;8.20;;
2129;SDS011;1071;52.544;13.374;2023-11-18T10:00:50;7.60;;;6.47;;
2129;SDS011;1071;52.544;13.374;2023-11-18T10:03:27;6.95;;;6.32;;
2129;SDS011;1071;52.544;13.374;2023-11-18T10:08:44;6.55;;;5.40;;
2129;SDS011;1071;52.544;13.374;2023-11-18T10:11:13;6.75;;;6.00;;
2129;SDS011;1071;52.544;13.374;2023-11-18T10:13:40;6.70;;;6.05;;
2129;SDS011;1071;52.544;13.374;2023-11-18T10:16:09;6.03;;;5.38;;
2129;SDS011;1071;52.544;13.374;2023-11-18T10:18:38;6.45;;;5.50;;
2129;SDS011;1071;52.544;13.374;2023-11-18T10:21:16;6.35;;;5.68;;
2129;SDS011;1071;52.544;13.374;2023-11-18T10:24:01;6.30;;;5.70;;
2129;SDS011;1071;52.544;13.374;2023-11-18T10:26:30;7.22;;;5.07;;
2129;SDS011;1071;52.544;13.374;2023-11-18T10:29:02;6.20;;;5.20;;
2129;SDS011;1071;52.544;13.374;2023-11-18T10:31:33;5.70;;;4.88;;
2129;SDS011;1071;52.544;13.374;2023-11-18T10:34:01;16.58;;;12.32;;
2129;SDS011;1071;52.544;13.374;2023-11-18T10:36:29;10.75;;;9.10;;
2129;SDS011;1071;52.544;13.374;2023-11-18T10:41:48;6.43;;;5.82;;
2129;SDS011;1071;52.544;13.374;2023-11-18T10:44:17;6.13;;;5.53;;
2129;SDS011;1071;52.544;13.374;2023-11-18T10:46:50;7.20;;;6.10;;
2129;SDS011;1071;52.544;13.374;2023-11-18T10:49:20;6.43;;;5.18;;
2129;SDS011;1071;52.544;13.374;2023-11-18T10:51:47;6.30;;;5.35;;
2129;SDS011;1071;52.544;13.374;2023-11-18T10:54:18;5.85;;;5.35;;
2129;SDS011;1071;52.544;13.374;2023-11-18T10:56:47;10.13;;;8.25;;
2129;SDS011;1071;52.544;13.374;2023-11-18T10:59:26;7.88;;;6.85;;
2129;SDS011;1071;52.544;13.374;2023-11-18T11:01:53;6.85;;;6.15;;
2129;SDS011;1071;52.544;13.374;2023-11-18T11:04:23;6.35;;;5.75;;
2129;SDS011;1071;52.544;13.374;2023-11-18T11:06:50;10.00;;;6.35;;
2129;SDS011;1071;52.544;13.374;2023-11-18T11:09:21;6.05;;;5.50;;
2129;SDS011;1071;52.544;13.374;2023-11-18T11:11:54;8.80;;;7.32;;
2129;SDS011;1071;52.544;13.374;2023-11-18T11:14:30;8.82;;;7.10;;
2129;SDS011;1071;52.544;13.374;2023-11-18T11:17:04;7.88;;;6.88;;
2129;SDS011;1071;52.544;13.374;2023-11-18T11:19:39;9.15;;;6.72;;
2129;SDS011;1071;52.544;13.374;2023-11-18T11:22:14;8.38;;;6.43;;
2129;SDS011;1071;52.544;13.374;2023-11-18T11:24:53;11.48;;;7.10;;
2129;SDS011;1071;52.544;13.374;2023-11-18T11:27:38;7.25;;;5.90;;
2129;SDS011;1071;52.544;13.374;2023-11-18T11:30:22;7.10;;;6.40;;
2129;SDS011;1071;52.544;13.374;2023-11-18T11:32:50;8.45;;;7.50;;
2129;SDS011;1071;52.544;13.374;2023-11-18T11:35:19;13.95;;;8.43;;
2129;SDS011;1071;52.544;13.374;2023-11-18T11:37:50;8.57;;;7.38;;
2129;SDS011;1071;52.544;13.374;2023-11-18T11:40:22;8.45;;;7.55;;
2129;SDS011;1071;52.544;13.374;2023-11-18T11:42:57;11.77;;;10.10;;
2129;SDS011;1071;52.544;13.374;2023-11-18T11:45:29;14.90;;;9.05;;
2129;SDS011;1071;52.544;13.374;2023-11-18T11:47:59;13.18;;;10.82;;
2129;SDS011;1071;52.544;13.374;2023-11-18T11:50:53;10.82;;;9.70;;
2129;SDS011;1071;52.544;13.374;2023-11-18T11:53:39;10.10;;;9.10;;
2129;SDS011;1071;52.544;13.374;2023-11-18T11:56:12;11.48;;;8.13;;
2129;SDS011;1071;52.544;13.374;2023-11-18T11:58:47;8.48;;;7.45;;
2129;SDS011;1071;52.544;13.374;2023-11-18T12:01:33;9.10;;;7.93;;
2129;SDS011;1071;52.544;13.374;2023-11-18T12:04:21;9.70;;;7.38;;
2129;SDS011;1071;52.544;13.374;2023-11-18T12:06:53;7.18;;;6.47;;
2129;SDS011;1071;52.544;13.374;2023-11-18T12:09:22;7.70;;;6.95;;
2129;SDS011;1071;52.544;13.374;2023-11-18T12:11:58;7.00;;;6.05;;
2129;SDS011;1071;52.544;13.374;2023-11-18T12:14:29;6.43;;;5.82;;
2129;SDS011;1071;52.544;13.374;2023-11-18T12:17:06;9.13;;;7.43;;
2129;SDS011;1071;52.544;13.374;2023-11-18T12:19:35;8.45;;;7.00;;
2129;SDS011;1071;52.544;13.374;2023-11-18T12:22:10;8.13;;;7.32;;
2129;SDS011;1071;52.544;13.374;2023-11-18T12:24:43;7.70;;;6.45;;
2129;SDS011;1071;52.544;13.374;2023-11-18T12:27:12;6.97;;;6.38;;
2129;SDS011;1071;52.544;13.374;2023-11-18T12:29:42;7.28;;;6.20;;
2129;SDS011;1071;52.544;13.374;2023-11-18T12:32:09;8.18;;;6.18;;
2129;SDS011;1071;52.544;13.374;2023-11-18T12:34:50;7.85;;;7.05;;
2129;SDS011;1071;52.544;13.374;2023-11-18T12:40:23;7.03;;;6.25;;
2129;SDS011;1071;52.544;13.374;2023-11-18T12:43:05;7.68;;;5.68;;
2129;SDS011;1071;52.544;13.374;2023-11-18T12:48:39;7.47;;;6.40;;
2129;SDS011;1071;52.544;13.374;2023-11-18T12:51:11;6.63;;;5.18;;
2129;SDS011;1071;52.544;13.374;2023-11-18T12:53:45;7.95;;;5.97;;
2129;SDS011;1071;52.544;13.374;2023-11-18T12:56:18;5.80;;;5.28;;
2129;SDS011;1071;52.544;13.374;2023-11-18T12:58:48;7.00;;;5.55;;
2129;SDS011;1071;52.544;13.374;2023-11-18T13:01:17;7.50;;;6.00;;
2129;SDS011;1071;52.544;13.374;2023-11-18T13:03:44;9.27;;;7.55;;
2129;SDS011;1071;52.544;13.374;2023-11-18T13:06:11;9.63;;;8.18;;
2129;SDS011;1071;52.544;13.374;2023-11-18T13:08:40;9.10;;;7.95;;
2129;SDS011;1071;52.544;13.374;2023-11-18T13:11:07;8.00;;;6.53;;
2129;SDS011;1071;52.544;13.374;2023-11-18T13:13:40;11.52;;;5.72;;
2129;SDS011;1071;52.544;13.374;2023-11-18T13:16:08;9.05;;;5.75;;
2129;SDS011;1071;52.544;13.374;2023-11-18T13:18:42;6.95;;;5.93;;
2129;SDS011;1071;52.544;13.374;2023-11-18T13:21:20;5.78;;;5.28;;
2129;SDS011;1071;52.544;13.374;2023-11-18T13:23:48;5.85;;;4.65;;
2129;SDS011;1071;52.544;13.374;2023-11-18T13:26:17;17.25;;;11.43;;
2129;SDS011;1071;52.544;13.374;2023-11-18T13:28:46;20.52;;;16.10;;
2129;SDS011;1071;52.544;13.374;2023-11-18T13:31:14;14.50;;;10.88;;
2129;SDS011;1071;52.544;13.374;2023-11-18T13:33:43;7.65;;;6.78;;
2129;SDS011;1071;52.544;13.374;2023-11-18T13:36:13;7.03;;;5.80;;
2129;SDS011;1071;52.544;13.374;2023-11-18T13:38:40;6.88;;;6.18;;
2129;SDS011;1071;52.544;13.374;2023-11-18T13:41:09;8.90;;;7.07;;
2129;SDS011;1071;52.544;13.374;2023-11-18T13:43:40;7.82;;;6.43;;
2129;SDS011;1071;52.544;13.374;2023-11-18T13:46:09;7.90;;;6.65;;
2129;SDS011;1071;52.544;13.374;2023-11-18T13:48:38;6.30;;;5.60;;
2129;SDS011;1071;52.544;13.374;2023-11-18T13:51:08;7.07;;;5.80;;
2129;SDS011;1071;52.544;13.374;2023-11-18T13:53:42;7.03;;;5.50;;
2129;SDS011;1071;52.544;13.374;2023-11-18T13:56:18;7.35;;;6.60;;
2129;SDS011;1071;52.544;13.374;2023-11-18T13:58:48;7.22;;;6.53;;
2129;SDS011;1071;52.544;13.374;2023-11-18T14:01:15;7.97;;;6.78;;
2129;SDS011;1071;52.544;13.374;2023-11-18T14:03:43;9.32;;;6.43;;
2129;SDS011;1071;52.544;13.374;2023-11-18T14:06:14;7.38;;;6.68;;
2129;SDS011;1071;52.544;13.374;2023-11-18T14:08:42;6.75;;;6.07;;
2129;SDS011;1071;52.544;13.374;2023-11-18T14:11:09;6.90;;;6.10;;
2129;SDS011;1071;52.544;13.374;2023-11-18T14:13:45;8.63;;;6.22;;
2129;SDS011;1071;52.544;13.374;2023-11-18T14:16:12;8.30;;;6.90;;
2129;SDS011;1071;52.544;13.374;2023-11-18T14:18:41;10.00;;;8.73;;
2129;SDS011;1071;52.544;13.374;2023-11-18T14:21:08;12.75;;;9.85;;
2129;SDS011;1071;52.544;13.374;2023-11-18T14:23:37;12.05;;;10.23;;
2129;SDS011;1071;52.544;13.374;2023-11-18T14:26:04;8.73;;;7.80;;
2129;SDS011;1071;52.544;13.374;2023-11-18T14:28:32;7.90;;;6.63;;
2129;SDS011;1071;52.544;13.374;2023-11-18T14:31:00;8.20;;;6.85;;
2129;SDS011;1071;52.544;13.374;2023-11-18T14:33:27;7.78;;;6.78;;
2129;SDS011;1071;52.544;13.374;2023-11-18T14:35:54;9.10;;;6.65;;
2129;SDS011;1071;52.544;13.374;2023-11-18T14:38:22;8.52;;;6.53;;
2129;SDS011;1071;52.544;13.374;2023-11-18T14:40:50;9.85;;;7.70;;
2129;SDS011;1071;52.544;13.374;2023-11-18T14:43:19;10.05;;;8.95;;
2129;SDS011;1071;52.544;13.374;2023-11-18T14:45:46;14.48;;;10.52;;
2129;SDS011;1071;52.544;13.374;2023-11-18T14:48:13;14.18;;;9.38;;
2129;SDS011;1071;52.544;13.374;2023-11-18T14:50:40;12.02;;;9.23;;
2129;SDS011;1071;52.544;13.374;2023-11-18T14:53:09;8.00;;;7.20;;
2129;SDS011;1071;52.544;13.374;2023-11-18T14:55:37;10.75;;;8.20;;
2129;SDS011;1071;52.544;13.374;2023-11-18T14:58:08;8.30;;;6.93;;
2129;SDS011;1071;52.544;13.374;2023-11-18T15:00:37;8.85;;;7.20;;
2129;SDS011;1071;52.544;13.374;2023-11-18T15:03:05;7.72;;;6.93;;
2129;SDS011;1071;52.544;13.374;2023-11-18T15:05:35;8.70;;;6.70;;
2129;SDS011;1071;52.544;13.374;2023-11-18T15:08:03;8.10;;;6.68;;
2129;SDS011;1071;52.544;13.374;2023-11-18T15:10:37;7.45;;;6.65;;
2129;SDS011;1071;52.544;13.374;2023-11-18T15:13:11;8.32;;;6.88;;
2129;SDS011;1071;52.544;13.374;2023-11-18T15:15:43;10.25;;;7.50;;
2129;SDS011;1071;52.544;13.374;2023-11-18T15:18:12;8.73;;;7.70;;
2129;SDS011;1071;52.544;13.374;2023-11-18T15:20:42;9.23;;;7.85;;
2129;SDS011;1071;52.544;13.374;2023-11-18T15:23:12;10.20;;;8.77;;
2129;SDS011;1071;52.544;13.374;2023-11-18T15:25:47;9.40;;;7.55;;